Time;durP1;ratioP1;P1;durP2;ratioP2;P2;SDS_P1;SDS_P2;PMS_P1;PMS_P2;Temp;Humidity;BMP_temperature;BMP_pressure;BME280_temperature;BME280_humidity;BME280_pressure;Samples;Min_cycle;Max_cycle;Signal;HPM_P1;HPM_P2
2022/11/23 00:00:30;;;;;;;16.80;4.63;;;;;;;5.75;100.00;98710.66;5023988;28;20029;-73
2022/11/23 00:02:56;;;;;;;17.55;4.10;;;;;;;5.76;100.00;98701.25;5040816;28;20093;-73
2022/11/23 00:05:21;;;;;;;22.88;4.43;;;;;;;5.76;100.00;98693.78;5040684;28;20028;-73
2022/11/23 00:07:47;;;;;;;16.48;4.22;;;;;;;5.77;100.00;98691.88;5055820;28;20340;-73
2022/11/23 00:10:12;;;;;;;26.75;4.95;;;;;;;5.81;100.00;98687.38;5040495;28;20393;-73
2022/11/23 00:12:38;;;;;;;17.75;4.13;;;;;;;5.80;100.00;98683.00;5066125;28;20032;-73
2022/11/23 00:15:04;;;;;;;17.98;4.85;;;;;;;5.81;100.00;98687.38;5054837;28;20089;-73
2022/11/23 00:17:30;;;;;;;18.02;4.45;;;;;;;5.85;100.00;98682.91;5060768;28;20025;-73
2022/11/23 00:19:55;;;;;;;13.70;4.03;;;;;;;5.85;100.00;98669.13;5042480;28;20037;-73
2022/11/23 00:22:21;;;;;;;21.30;4.95;;;;;;;5.86;100.00;98668.00;5028095;28;20025;-73
2022/11/23 00:24:46;;;;;;;17.15;4.07;;;;;;;5.87;100.00;98669.63;5041125;28;20037;-73
2022/11/23 00:27:12;;;;;;;14.82;4.97;;;;;;;5.91;100.00;98662.38;5043568;28;20032;-73
2022/11/23 00:29:37;;;;;;;10.55;4.22;;;;;;;5.90;100.00;98659.91;5044240;28;20017;-73
2022/11/23 00:32:03;;;;;;;28.63;5.25;;;;;;;5.93;100.00;98657.38;5027496;28;20059;-73
2022/11/23 00:34:28;;;;;;;20.92;4.75;;;;;;;5.94;100.00;98652.72;5043975;28;20033;-73
2022/11/23 00:36:54;;;;;;;27.88;5.10;;;;;;;5.96;100.00;98654.03;5044114;28;20464;-73
2022/11/23 00:39:19;;;;;;;18.35;5.32;;;;;;;5.96;100.00;98650.44;5044358;28;20062;-73
2022/11/23 00:41:45;;;;;;;20.60;5.05;;;;;;;5.98;100.00;98638.00;5060433;28;20032;-73
2022/11/23 00:44:10;;;;;;;16.40;4.50;;;;;;;5.99;100.00;98634.13;5040637;28;20083;-73
2022/11/23 00:46:35;;;;;;;19.42;5.53;;;;;;;6.03;100.00;98629.63;5026198;28;20027;-73
2022/11/23 00:49:01;;;;;;;17.60;5.03;;;;;;;6.04;100.00;98616.66;5060390;28;20036;-73
2022/11/23 00:51:31;;;;;;;14.38;4.65;;;;;;;6.04;100.00;98614.72;5023753;28;20045;-73
2022/11/23 00:53:56;;;;;;;16.13;4.50;;;;;;;6.06;100.00;98602.56;5054215;28;20028;-73
2022/11/23 00:56:22;;;;;;;13.95;5.43;;;;;;;6.09;100.00;98600.00;5023740;28;20366;-73
2022/11/23 00:58:51;;;;;;;15.95;5.20;;;;;;;6.11;100.00;98589.47;5051004;28;20032;-73
2022/11/23 01:01:18;;;;;;;17.67;5.20;;;;;;;6.14;100.00;98582.53;5060512;28;20043;-73
2022/11/23 01:03:45;;;;;;;13.80;5.00;;;;;;;6.13;100.00;98586.41;5057853;28;20032;-73
2022/11/23 01:06:12;;;;;;;15.85;5.13;;;;;;;6.14;100.00;98568.75;5056911;28;20033;-73
2022/11/23 01:08:38;;;;;;;17.38;5.30;;;;;;;6.16;100.00;98572.84;5072402;28;20046;-73
2022/11/23 01:11:05;;;;;;;15.75;5.00;;;;;;;6.17;100.00;98577.22;5040299;28;20408;-73
2022/11/23 01:13:31;;;;;;;16.05;5.50;;;;;;;6.23;100.00;98566.88;5059462;28;20058;-73
2022/11/23 01:15:56;;;;;;;21.05;6.45;;;;;;;6.23;100.00;98556.66;5060280;28;20032;-73
2022/11/23 01:18:22;;;;;;;17.05;5.15;;;;;;;6.25;100.00;98554.41;5043338;28;20025;-73
2022/11/23 01:20:48;;;;;;;18.73;6.22;;;;;;;6.31;100.00;98552.34;5026798;28;20063;-73
2022/11/23 01:23:13;;;;;;;17.75;7.00;;;;;;;6.33;100.00;98547.34;5042070;28;20025;-73
2022/11/23 01:25:39;;;;;;;13.93;5.35;;;;;;;6.33;100.00;98529.97;5059672;28;20055;-73
2022/11/23 01:28:04;;;;;;;15.77;6.07;;;;;;;6.38;100.00;98532.59;5059777;28;20090;-73
2022/11/23 01:30:30;;;;;;;18.08;5.60;;;;;;;6.39;100.00;98529.53;5029824;28;20530;-73
2022/11/23 01:32:55;;;;;;;15.45;5.85;;;;;;;6.41;100.00;98524.53;5059506;28;20039;-73
2022/11/23 01:35:21;;;;;;;15.77;4.90;;;;;;;6.42;100.00;98520.63;5043276;28;20477;-73
2022/11/23 01:37:46;;;;;;;20.40;5.10;;;;;;;6.44;100.00;98518.38;5056380;28;20184;-73
2022/11/23 01:40:12;;;;;;;19.20;5.57;;;;;;;6.48;100.00;98513.84;5026401;28;20029;-73
2022/11/23 01:43:09;;;;;;;14.68;4.55;;;;;;;6.51;100.00;98514.34;5069645;28;20144;-73
2022/11/23 01:45:40;;;;;;;17.02;5.47;;;;;;;6.56;100.00;98508.69;5067912;28;20094;-73
2022/11/23 01:48:17;;;;;;;19.13;5.25;;;;;;;6.58;100.00;98501.75;5040718;28;20032;-73
2022/11/23 01:50:42;;;;;;;18.60;4.63;;;;;;;6.59;100.00;98499.78;5049396;28;20458;-73
2022/11/23 01:53:08;;;;;;;20.73;5.60;;;;;;;6.63;100.00;98498.00;5059314;28;20052;-73
2022/11/23 01:55:33;;;;;;;14.48;4.60;;;;;;;6.64;100.00;98491.38;5059333;28;20032;-73
2022/11/23 01:57:59;;;;;;;15.25;5.03;;;;;;;6.67;100.00;98494.31;5042564;28;20016;-73
2022/11/23 02:00:24;;;;;;;18.17;4.72;;;;;;;6.69;100.00;98477.47;5075767;28;20028;-73
2022/11/23 02:02:52;;;;;;;18.65;4.95;;;;;;;6.71;100.00;98484.28;5042714;28;20021;-73
2022/11/23 02:05:18;;;;;;;13.93;4.60;;;;;;;6.72;100.00;98485.91;5065219;28;20384;-73
2022/11/23 02:07:45;;;;;;;10.43;4.30;;;;;;;6.74;100.00;98482.81;5057797;28;20028;-73
2022/11/23 02:10:11;;;;;;;14.38;3.92;;;;;;;6.75;100.00;98487.22;5046803;28;20033;-73
2022/11/23 02:12:36;;;;;;;10.82;3.80;;;;;;;6.78;100.00;98480.25;5022671;28;20084;-73
2022/11/23 02:15:02;;;;;;;11.35;4.10;;;;;;;6.79;100.00;98482.69;5057023;28;20478;-73
2022/11/23 02:17:28;;;;;;;14.48;4.00;;;;;;;6.79;100.00;98485.44;5025563;28;20027;-73
2022/11/23 02:20:13;;;;;;;12.95;3.72;;;;;;;6.82;100.00;98482.03;5045339;28;20029;-73
2022/11/23 02:22:49;;;;;;;12.45;4.05;;;;;;;6.86;100.00;98485.00;5058681;28;20055;-73
2022/11/23 02:25:33;;;;;;;12.48;3.63;;;;;;;6.86;100.00;98482.22;5058627;28;20040;-73
2022/11/23 02:27:59;;;;;;;15.65;3.80;;;;;;;6.89;100.00;98482.41;5044221;28;20499;-73
2022/11/23 02:30:24;;;;;;;14.63;4.05;;;;;;;6.92;100.00;98479.00;5042085;28;20028;-73
2022/11/23 02:32:50;;;;;;;9.50;4.05;;;;;;;6.93;100.00;98483.38;5038396;28;20033;-73
2022/11/23 02:35:16;;;;;;;13.95;4.32;;;;;;;6.93;100.00;98477.84;5038178;28;20029;-73
2022/11/23 02:37:41;;;;;;;9.43;4.07;;;;;;;6.98;100.00;98473.34;5058050;28;20088;-73
2022/11/23 02:40:29;;;;;;;8.73;4.32;;;;;;;7.00;100.00;98471.88;5058436;28;20438;-73
2022/11/23 02:42:55;;;;;;;7.47;3.83;;;;;;;6.99;100.00;98463.91;5074878;28;20119;-73
2022/11/23 02:45:22;;;;;;;8.40;4.28;;;;;;;6.99;100.00;98458.41;5041600;28;20035;-73
2022/11/23 02:47:48;;;;;;;7.55;4.00;;;;;;;7.01;100.00;98459.72;5058061;28;20036;-73
2022/11/23 02:50:14;;;;;;;10.50;4.18;;;;;;;7.05;100.00;98465.38;5021543;28;20024;-73
2022/11/23 02:52:40;;;;;;;9.35;4.18;;;;;;;7.06;100.00;98456.81;5054714;28;20080;-73
2022/11/23 02:55:05;;;;;;;9.43;4.20;;;;;;;7.05;100.00;98443.31;5047806;28;20033;-73
2022/11/23 02:57:31;;;;;;;8.00;4.15;;;;;;;7.08;100.00;98440.75;5041222;28;20078;-73
2022/11/23 02:59:56;;;;;;;7.47;3.75;;;;;;;7.09;100.00;98447.06;5025149;28;20033;-73
2022/11/23 03:02:22;;;;;;;6.75;3.58;;;;;;;7.11;100.00;98439.28;5041594;28;20040;-73
2022/11/23 03:04:47;;;;;;;6.82;3.58;;;;;;;7.12;100.00;98438.94;5040902;28;20036;-73
2022/11/23 03:07:13;;;;;;;6.22;3.70;;;;;;;7.12;100.00;98416.88;5041318;28;20040;-73
2022/11/23 03:09:38;;;;;;;8.63;3.80;;;;;;;7.16;100.00;98411.53;5041412;28;20033;-73
2022/11/23 03:12:04;;;;;;;6.38;3.38;;;;;;;7.17;100.00;98407.63;5041100;28;20028;-73
2022/11/23 03:14:29;;;;;;;7.53;3.50;;;;;;;7.16;100.00;98411.53;5057853;28;20517;-73
2022/11/23 03:16:55;;;;;;;6.75;3.92;;;;;;;7.21;100.00;98413.31;5057842;28;20504;-73
2022/11/23 03:19:20;;;;;;;5.70;3.90;;;;;;;7.22;100.00;98403.91;5064387;28;20029;-73
2022/11/23 03:21:46;;;;;;;8.43;3.97;;;;;;;7.22;100.00;98401.94;5054315;28;20036;-73
2022/11/23 03:24:11;;;;;;;8.40;4.63;;;;;;;7.21;100.00;98397.56;5037914;28;20032;-73
2022/11/23 03:26:36;;;;;;;7.47;4.60;;;;;;;7.26;100.00;98393.84;5052450;28;20040;-73
2022/11/23 03:29:02;;;;;;;6.38;4.57;;;;;;;7.26;100.00;98389.13;5024454;28;20024;-73
2022/11/23 03:31:27;;;;;;;7.18;4.72;;;;;;;7.25;100.00;98379.22;5040591;28;20507;-73
2022/11/23 03:33:53;;;;;;;6.97;5.20;;;;;;;7.29;100.00;98382.94;5057287;28;20035;-73
2022/11/23 03:36:18;;;;;;;7.90;4.82;;;;;;;7.30;100.00;98373.53;5075464;28;20024;-73
2022/11/23 03:38:44;;;;;;;6.63;4.53;;;;;;;7.30;100.00;98373.53;5040729;28;20024;-73
2022/11/23 03:41:09;;;;;;;7.13;4.47;;;;;;;7.32;100.00;98368.47;5074099;28;20024;-73
2022/11/23 03:43:35;;;;;;;7.07;4.55;;;;;;;7.32;100.00;98362.97;5040782;28;20078;-73
2022/11/23 03:46:00;;;;;;;7.05;4.28;;;;;;;7.32;100.00;98357.44;5039117;28;20036;-73
2022/11/23 03:48:25;;;;;;;5.93;4.10;;;;;;;7.33;100.00;98355.50;5045727;28;20082;-73
2022/11/23 03:50:51;;;;;;;7.43;4.13;;;;;;;7.35;100.00;98364.25;5057234;28;20397;-73
2022/11/23 03:53:16;;;;;;;7.68;4.50;;;;;;;7.36;100.00;98361.19;5044055;28;20032;-73
2022/11/23 03:55:45;;;;;;;5.75;3.30;;;;;;;7.36;100.00;98363.94;5062516;28;20028;-73
2022/11/23 03:58:10;;;;;;;6.03;4.10;;;;;;;7.39;100.00;98348.69;5063927;28;20035;-73
2022/11/23 04:00:35;;;;;;;5.35;3.90;;;;;;;7.38;100.00;98352.56;5080329;28;20028;-73
2022/11/23 04:03:01;;;;;;;5.22;4.00;;;;;;;7.39;100.00;98349.50;5063964;28;20029;-73
2022/11/23 04:05:26;;;;;;;6.90;3.50;;;;;;;7.41;100.00;98342.81;5030836;28;20059;-73
2022/11/23 04:07:52;;;;;;;4.85;3.08;;;;;;;7.40;100.00;98339.25;5047183;28;20485;-73
2022/11/23 04:10:18;;;;;;;7.93;3.88;;;;;;;7.43;100.00;98338.59;5077175;28;20036;-73
2022/11/23 04:12:43;;;;;;;5.05;3.65;;;;;;;7.44;100.00;98322.81;5043935;28;20090;-73
2022/11/23 04:15:09;;;;;;;6.55;4.20;;;;;;;7.46;100.00;98337.13;5043069;28;20036;-73
2022/11/23 04:17:34;;;;;;;5.68;4.10;;;;;;;7.48;100.00;98329.34;5064008;28;20037;-73
2022/11/23 04:20:00;;;;;;;5.57;3.53;;;;;;;7.47;100.00;98328.53;5029455;28;20428;-73
2022/11/23 04:22:25;;;;;;;4.75;3.47;;;;;;;7.50;100.00;98314.06;5047149;28;20047;-73
2022/11/23 04:24:51;;;;;;;5.97;3.28;;;;;;;7.50;100.00;98318.78;5060397;28;20036;-73
2022/11/23 04:27:16;;;;;;;6.43;3.83;;;;;;;7.52;100.00;98310.97;5047177;28;20307;-73
2022/11/23 04:29:42;;;;;;;6.13;3.60;;;;;;;7.53;100.00;98310.66;5046912;28;20021;-73
2022/11/23 04:32:07;;;;;;;5.70;3.45;;;;;;;7.52;100.00;98313.72;5043663;28;20029;-73
2022/11/23 04:34:33;;;;;;;5.53;3.30;;;;;;;7.54;100.00;98305.94;5080118;28;20025;-73
2022/11/23 04:36:58;;;;;;;5.53;3.13;;;;;;;7.55;100.00;98316.66;5030567;28;20388;-73
2022/11/23 04:39:24;;;;;;;4.25;3.20;;;;;;;7.56;100.00;98311.94;5063684;28;20082;-73
2022/11/23 04:41:49;;;;;;;4.65;3.30;;;;;;;7.57;100.00;98308.03;5060082;28;20028;-73
2022/11/23 04:44:15;;;;;;;3.78;3.00;;;;;;;7.57;100.00;98310.78;5043839;28;20520;-73
2022/11/23 04:46:40;;;;;;;4.75;3.53;;;;;;;7.61;100.00;98309.03;5026719;28;20031;-73
2022/11/23 04:49:07;;;;;;;3.83;3.38;;;;;;;7.58;100.00;98293.91;5040834;28;20535;-73
2022/11/23 04:51:32;;;;;;;4.03;2.67;;;;;;;7.61;100.00;98303.50;5063401;28;20044;-73
2022/11/23 04:53:58;;;;;;;5.70;3.63;;;;;;;7.63;100.00;98309.47;5063181;28;20039;-73
2022/11/23 04:56:23;;;;;;;4.07;3.30;;;;;;;7.63;100.00;98314.19;5063454;28;20033;-73
2022/11/23 04:58:49;;;;;;;3.65;3.17;;;;;;;7.65;100.00;98311.94;5046279;28;20029;-73
2022/11/23 05:01:14;;;;;;;3.80;3.38;;;;;;;7.66;100.00;98302.50;5052269;28;20025;-73
2022/11/23 05:03:40;;;;;;;3.88;3.03;;;;;;;7.64;100.00;98310.31;5034800;28;20074;-74
2022/11/23 05:06:06;;;;;;;4.43;3.00;;;;;;;7.68;100.00;98317.59;5076888;28;20036;-73
2022/11/23 05:08:31;;;;;;;4.10;3.10;;;;;;;7.67;100.00;98299.41;5076637;28;20036;-73
2022/11/23 05:10:57;;;;;;;3.67;3.30;;;;;;;7.68;100.00;98284.44;5078068;28;20032;-73
2022/11/23 05:13:22;;;;;;;4.20;3.45;;;;;;;7.71;100.00;98281.03;5043316;28;20024;-73
2022/11/23 05:15:48;;;;;;;4.00;3.35;;;;;;;7.71;100.00;98274.69;5069474;28;20507;-73
2022/11/23 05:18:13;;;;;;;5.20;3.28;;;;;;;7.71;100.00;98269.97;5057242;28;20551;-73
2022/11/23 05:20:39;;;;;;;4.20;3.20;;;;;;;7.74;100.00;98266.53;5039825;28;20029;-73
2022/11/23 05:23:04;;;;;;;4.32;3.60;;;;;;;7.77;100.00;98259.56;5070784;28;20027;-73
2022/11/23 05:25:30;;;;;;;4.90;3.83;;;;;;;7.77;100.00;98260.38;5039998;28;20033;-73
2022/11/23 05:27:55;;;;;;;4.80;2.97;;;;;;;7.77;100.00;98249.34;5043350;28;20025;-73
2022/11/23 05:30:21;;;;;;;4.15;3.17;;;;;;;7.80;100.00;98234.84;5076325;28;20598;-73
2022/11/23 05:32:47;;;;;;;5.25;3.38;;;;;;;7.80;100.00;98221.03;5056500;28;20037;-73
2022/11/23 05:35:13;;;;;;;4.18;2.90;;;;;;;7.81;100.00;98210.78;5075429;28;20039;-73
2022/11/23 05:37:38;;;;;;;5.38;3.05;;;;;;;7.81;100.00;98208.81;5059856;28;20031;-73
2022/11/23 05:40:04;;;;;;;4.07;3.45;;;;;;;7.82;100.00;98188.34;5026481;28;20025;-73
2022/11/23 05:42:30;;;;;;;5.03;3.25;;;;;;;7.83;100.00;98189.97;5039768;28;20060;-73
2022/11/23 05:44:56;;;;;;;6.10;3.97;;;;;;;7.86;100.00;98184.94;5069711;28;20036;-73
2022/11/23 05:47:21;;;;;;;7.82;4.20;;;;;;;7.88;100.00;98177.91;5056135;28;20087;-73
2022/11/23 05:49:47;;;;;;;5.75;3.40;;;;;;;7.89;100.00;98189.78;5070259;28;20061;-73
2022/11/23 05:52:12;;;;;;;6.50;4.15;;;;;;;7.91;100.00;98202.13;5026318;28;20686;-73
2022/11/23 05:54:37;;;;;;;7.88;4.47;;;;;;;7.92;100.00;98217.56;5058865;28;20040;-73
2022/11/23 05:57:03;;;;;;;7.15;4.78;;;;;;;7.93;100.00;98227.47;5035287;28;20037;-73
2022/11/23 05:59:28;;;;;;;7.05;4.25;;;;;;;7.94;100.00;98247.63;5056334;28;20071;-73
2022/11/23 06:01:54;;;;;;;8.43;4.70;;;;;;;7.97;100.00;98252.50;5070218;28;20033;-73
2022/11/23 06:04:19;;;;;;;9.35;4.68;;;;;;;7.96;100.00;98231.53;5075733;28;20024;-73
2022/11/23 06:06:45;;;;;;;13.80;5.45;;;;;;;7.99;100.00;98237.19;5042729;28;20542;-73
2022/11/23 06:09:10;;;;;;;8.00;4.22;;;;;;;7.98;100.00;98227.28;5039112;28;20029;-73
2022/11/23 06:11:36;;;;;;;8.02;4.80;;;;;;;8.02;100.00;98232.94;5070047;28;20032;-73
2022/11/23 06:14:01;;;;;;;13.07;5.13;;;;;;;8.02;100.00;98227.41;5075618;28;20036;-73
2022/11/23 06:16:27;;;;;;;6.72;4.60;;;;;;;8.02;100.00;98230.19;5038986;28;20044;-73
2022/11/23 06:18:52;;;;;;;9.63;4.70;;;;;;;8.02;100.00;98230.19;5025444;28;20095;-73
2022/11/23 06:21:18;;;;;;;11.88;5.32;;;;;;;8.06;100.00;98239.44;5022604;28;20469;-73
2022/11/23 06:23:43;;;;;;;8.98;5.10;;;;;;;8.05;100.00;98237.81;5021411;28;20051;-73
2022/11/23 06:26:09;;;;;;;9.48;4.53;;;;;;;8.09;100.00;98244.31;5040335;28;20031;-73
2022/11/23 06:28:35;;;;;;;9.68;4.20;;;;;;;8.09;100.00;98244.31;5038839;28;20040;-73
2022/11/23 06:31:02;;;;;;;7.05;4.25;;;;;;;8.09;100.00;98236.00;5075240;28;20070;-73
2022/11/23 06:33:28;;;;;;;7.80;4.28;;;;;;;8.09;100.00;98244.31;5058270;28;20024;-73
2022/11/23 06:35:58;;;;;;;9.70;4.05;;;;;;;8.12;100.00;98227.06;5080455;28;20390;-73
2022/11/23 06:38:23;;;;;;;11.38;4.22;;;;;;;8.13;100.00;98252.75;5040906;28;20065;-73
2022/11/23 06:40:49;;;;;;;10.02;4.43;;;;;;;8.13;100.00;98261.84;5058557;28;20108;-73
2022/11/23 06:43:14;;;;;;;8.52;4.10;;;;;;;8.17;100.00;98243.47;5058620;28;20051;-73
2022/11/23 06:45:40;;;;;;;9.65;3.80;;;;;;;8.16;100.00;98261.19;5041931;28;20374;-73
2022/11/23 06:48:05;;;;;;;11.02;3.95;;;;;;;8.17;100.00;98271.09;5025069;28;20025;-73
2022/11/23 06:50:31;;;;;;;6.50;3.85;;;;;;;8.17;100.00;98262.00;5021303;28;20358;-73
2022/11/23 06:52:56;;;;;;;10.05;3.80;;;;;;;8.19;100.00;98266.06;5055830;28;20049;-73
2022/11/23 06:55:23;;;;;;;8.18;4.03;;;;;;;8.23;100.00;98272.53;5058330;28;20060;-73
2022/11/23 06:57:48;;;;;;;13.30;4.03;;;;;;;8.24;100.00;98254.78;5064053;28;20036;-73
2022/11/23 07:00:14;;;;;;;9.13;3.95;;;;;;;8.23;100.00;98241.31;5058229;28;20025;-73
2022/11/23 07:02:40;;;;;;;15.20;4.50;;;;;;;8.26;100.00;98237.88;5025182;28;20472;-73
2022/11/23 07:05:05;;;;;;;12.82;3.85;;;;;;;8.27;100.00;98218.19;5041155;28;20025;-73
2022/11/23 07:07:31;;;;;;;13.52;4.00;;;;;;;8.32;100.00;98225.47;5057905;28;20134;-72
2022/11/23 07:09:57;;;;;;;16.15;4.28;;;;;;;8.31;100.00;98236.88;5024747;28;20039;-73
2022/11/23 07:12:22;;;;;;;10.18;3.90;;;;;;;8.32;100.00;98257.84;5038047;28;20021;-73
2022/11/23 07:14:47;;;;;;;15.98;3.83;;;;;;;8.30;100.00;98260.94;5038072;28;20044;-73
2022/11/23 07:17:13;;;;;;;12.93;3.53;;;;;;;8.33;100.00;98284.34;5067760;28;20469;-73
2022/11/23 07:19:38;;;;;;;10.13;3.30;;;;;;;8.31;100.00;98289.44;5054162;28;20025;-73
2022/11/23 07:22:04;;;;;;;14.00;3.45;;;;;;;8.33;100.00;98292.66;5040378;28;20032;-73
2022/11/23 07:24:30;;;;;;;13.02;3.58;;;;;;;8.34;100.00;98297.88;5037665;28;20040;-73
2022/11/23 07:26:55;;;;;;;10.85;3.00;;;;;;;8.34;100.00;98302.59;5074353;28;20033;-73
2022/11/23 07:29:21;;;;;;;13.40;3.88;;;;;;;8.31;100.00;98297.72;5041476;28;20515;-73
2022/11/23 07:31:46;;;;;;;13.65;3.90;;;;;;;8.32;100.00;98305.66;5057267;28;20028;-73
2022/11/23 07:34:11;;;;;;;13.02;3.30;;;;;;;8.33;100.00;98314.78;5037480;28;20052;-74
2022/11/23 07:36:37;;;;;;;13.15;3.97;;;;;;;8.35;100.00;98310.53;5035286;28;20086;-74
2022/11/23 07:39:03;;;;;;;10.80;4.05;;;;;;;8.34;100.00;98331.06;5048477;28;20112;-73
2022/11/23 07:41:28;;;;;;;12.50;4.28;;;;;;;8.36;100.00;98328.78;5074477;28;20056;-73
2022/11/23 07:43:53;;;;;;;7.78;3.40;;;;;;;8.35;100.00;98340.97;5074227;28;20020;-73
2022/11/23 07:46:19;;;;;;;16.80;4.13;;;;;;;8.35;100.00;98352.03;5080926;28;20388;-73
2022/11/23 07:48:45;;;;;;;11.73;3.95;;;;;;;8.36;100.00;98355.59;5040662;28;20048;-73
2022/11/23 07:51:10;;;;;;;8.73;3.28;;;;;;;8.33;100.00;98356.25;5024390;28;20048;-73
2022/11/23 07:53:35;;;;;;;9.50;3.60;;;;;;;8.34;100.00;98363.44;5057455;28;20033;-73
2022/11/23 07:56:01;;;;;;;15.40;3.50;;;;;;;8.31;100.00;98372.41;5057252;28;20039;-73
2022/11/23 07:58:26;;;;;;;14.52;3.88;;;;;;;8.32;100.00;98368.47;5037608;28;20037;-73
2022/11/23 08:00:52;;;;;;;12.48;3.78;;;;;;;8.31;100.00;98377.94;5037440;28;20029;-73
2022/11/23 08:03:18;;;;;;;12.45;3.67;;;;;;;8.29;100.00;98384.56;5039194;28;20116;-73
2022/11/23 08:05:43;;;;;;;12.43;3.13;;;;;;;8.28;100.00;98388.50;5070871;28;20056;-73
2022/11/23 08:08:09;;;;;;;12.65;3.55;;;;;;;8.27;100.00;98400.72;5065265;28;20032;-73
2022/11/23 08:10:34;;;;;;;13.48;3.15;;;;;;;8.27;100.00;98405.41;5040555;28;20032;-73
2022/11/23 08:13:00;;;;;;;16.63;3.85;;;;;;;8.26;100.00;98412.09;5057253;28;20035;-73
2022/11/23 08:15:29;;;;;;;12.93;3.38;;;;;;;8.26;100.00;98421.19;5040804;28;20036;-73
2022/11/23 08:17:59;;;;;;;12.98;2.95;;;;;;;8.27;100.00;98433.91;5024826;28;20482;-73
2022/11/23 08:20:25;;;;;;;12.77;2.75;;;;;;;8.29;100.00;98450.16;5040088;28;20686;-73
2022/11/23 08:22:50;;;;;;;13.18;2.83;;;;;;;8.29;100.00;98442.66;5073886;28;20488;-73
2022/11/23 08:25:16;;;;;;;10.05;2.30;;;;;;;8.33;100.00;98459.44;5039082;28;20048;-73
2022/11/23 08:27:41;;;;;;;13.35;2.70;;;;;;;8.36;100.00;98463.47;5040237;28;20051;-73
2022/11/23 08:30:07;;;;;;;10.85;2.83;;;;;;;8.40;100.00;98464.47;5056971;28;20543;-73
2022/11/23 08:32:32;;;;;;;9.00;2.03;;;;;;;8.42;100.00;98468.53;5056914;28;20040;-73
2022/11/23 08:34:58;;;;;;;12.98;2.25;;;;;;;8.49;100.00;98481.84;5057668;28;20043;-73
2022/11/23 08:37:23;;;;;;;13.52;2.65;;;;;;;8.55;100.00;98488.00;5031058;28;20470;-73
2022/11/23 08:39:49;;;;;;;13.77;2.20;;;;;;;8.60;100.00;98485.06;5037534;28;20079;-73
2022/11/23 08:42:14;;;;;;;10.98;2.60;;;;;;;8.65;100.00;98496.78;5057033;28;20024;-73
2022/11/23 08:44:40;;;;;;;17.80;2.55;;;;;;;8.71;100.00;98511.25;5040564;28;20025;-73
2022/11/23 08:47:05;;;;;;;8.35;2.05;;;;;;;8.73;100.00;98520.03;5057133;28;20028;-73
2022/11/23 08:49:31;;;;;;;12.95;2.50;;;;;;;8.77;100.00;98525.72;5023731;28;20036;-73
2022/11/23 08:51:57;;;;;;;18.02;2.67;;;;;;;8.82;100.00;98526.34;5051290;28;20053;-73
2022/11/23 08:54:23;;;;;;;23.35;3.22;;;;;;;8.87;100.00;98541.97;5060601;28;20384;-73
2022/11/23 08:56:49;;;;;;;17.08;2.80;;;;;;;8.89;100.00;98531.41;5067562;28;20029;-72
2022/11/23 08:59:16;;;;;;;13.88;2.15;;;;;;;8.92;100.00;98541.81;5060001;28;20025;-73
2022/11/23 09:01:42;;;;;;;11.77;2.22;;;;;;;8.96;100.00;98542.75;5034947;28;20032;-73
2022/11/23 09:04:07;;;;;;;13.15;2.80;;;;;;;9.01;100.00;98547.31;5043546;28;20078;-73
2022/11/23 09:06:33;;;;;;;26.65;2.95;;;;;;;9.07;100.00;98565.34;5044001;28;20032;-73
2022/11/23 09:08:58;;;;;;;16.70;2.75;;;;;;;9.08;100.00;98565.03;5063642;28;20096;-73
2022/11/23 09:11:25;;;;;;;12.85;3.17;;;;;;;9.14;100.00;98574.78;5059666;28;20028;-73
2022/11/23 09:13:51;;;;;;;10.38;2.20;;;;;;;9.21;100.00;98573.44;5043724;28;20488;-73
2022/11/23 09:16:16;;;;;;;18.92;1.98;;;;;;;9.27;100.00;98574.88;5060265;28;20043;-73
2022/11/23 09:18:41;;;;;;;17.20;2.38;;;;;;;9.33;100.00;98585.47;5089976;28;20476;-73
2022/11/23 09:21:07;;;;;;;18.33;2.60;;;;;;;9.39;100.00;98592.44;5065529;28;20032;-73
2022/11/23 09:23:32;;;;;;;20.42;2.42;;;;;;;9.49;100.00;98598.75;5041191;28;20032;-73
2022/11/23 09:26:02;;;;;;;17.83;3.17;;;;;;;9.54;100.00;98598.56;5050537;28;20021;-73
2022/11/23 09:28:27;;;;;;;16.85;2.45;;;;;;;9.61;100.00;98602.44;5057423;28;20044;-73
2022/11/23 09:30:56;;;;;;;17.52;2.17;;;;;;;9.70;100.00;98610.72;5023788;28;20036;-73
2022/11/23 09:33:22;;;;;;;15.88;2.58;;;;;;;9.76;100.00;98614.91;5056691;28;20366;-73
2022/11/23 09:36:02;;;;;;;22.65;2.92;;;;;;;9.83;100.00;98617.16;5056717;28;20103;-73
2022/11/23 09:38:27;;;;;;;18.48;3.40;;;;;;;9.90;100.00;98627.72;5055675;28;20034;-73
2022/11/23 09:41:06;;;;;;;17.00;2.75;;;;;;;10.01;100.00;98624.22;5063674;28;20108;-73
2022/11/23 09:43:41;;;;;;;24.15;3.60;;;;;;;10.11;100.00;98633.28;5044212;28;20024;-73
2022/11/23 09:46:40;;;;;;;17.17;2.47;;;;;;;10.19;100.00;98633.22;5076189;28;20032;-73
2022/11/23 09:49:12;;;;;;;22.13;2.80;;;;;;;10.27;100.00;98653.78;5017577;28;20033;-73
2022/11/23 09:51:37;;;;;;;19.75;2.55;;;;;;;10.34;100.00;98658.81;5057390;28;20072;-73
2022/11/23 09:54:04;;;;;;;19.33;3.47;;;;;;;10.41;100.00;98646.00;5065238;28;20789;-73
2022/11/23 09:56:33;;;;;;;21.30;2.55;;;;;;;10.47;100.00;98655.75;5023157;28;20039;-73
2022/11/23 09:59:20;;;;;;;19.15;2.38;;;;;;;10.54;100.00;98655.22;5042732;28;20036;-73
2022/11/23 10:01:45;;;;;;;25.52;3.17;;;;;;;10.63;100.00;98660.69;5054600;28;20044;-73
2022/11/23 10:04:16;;;;;;;23.05;2.95;;;;;;;10.71;100.00;98680.03;5042300;28;20032;-73
2022/11/23 10:06:41;;;;;;;19.13;2.87;;;;;;;10.77;100.00;98685.38;5055947;28;20087;-73
2022/11/23 10:09:35;;;;;;;17.55;2.88;;;;;;;10.85;100.00;98693.66;5074542;28;20090;-73
2022/11/23 10:12:25;;;;;;;27.25;3.00;;;;;;;10.92;100.00;98699.47;5058859;28;20082;-73
2022/11/23 10:15:10;;;;;;;22.75;3.10;;;;;;;10.94;100.00;98708.25;5042329;28;20097;-73
2022/11/23 10:18:06;;;;;;;31.30;2.97;;;;;;;11.01;100.00;98710.50;5081079;28;20036;-73
2022/11/23 10:20:49;;;;;;;19.27;2.70;;;;;;;11.08;100.00;98721.84;5055268;28;20036;-73
2022/11/23 10:23:42;;;;;;;17.23;2.58;;;;;;;11.14;100.00;98725.25;5070543;28;20485;-73
2022/11/23 10:26:09;;;;;;;;;;;;;;;11.21;100.00;98725.50;5059065;28;20041;-73
2022/11/23 10:28:35;;;;;;;16.02;2.65;;;;;;;11.25;100.00;98739.53;5058901;28;19920;-73
2022/11/23 10:31:06;;;;;;;25.80;3.03;;;;;;;11.31;100.00;98755.66;5023231;28;20024;-73
2022/11/23 10:33:50;;;;;;;24.88;3.45;;;;;;;11.38;100.00;98758.69;5070828;28;20029;-73
2022/11/23 10:36:16;;;;;;;21.73;3.10;;;;;;;11.42;100.00;98769.91;5073360;28;20036;-73
2022/11/23 10:38:41;;;;;;;30.35;3.95;;;;;;;11.48;100.00;98773.31;5057505;28;20040;-73
2022/11/23 10:41:11;;;;;;;26.42;3.30;;;;;;;11.53;100.00;98765.59;5058524;28;20029;-73
2022/11/23 10:43:50;;;;;;;25.27;3.65;;;;;;;11.52;100.00;98775.06;5025481;28;20669;-73
2022/11/23 10:46:27;;;;;;;27.33;4.15;;;;;;;11.61;100.00;98772.19;5062928;28;20029;-74
2022/11/23 10:48:53;;;;;;;29.48;3.53;;;;;;;11.66;100.00;98777.53;5058338;28;20039;-74
2022/11/23 10:51:31;;;;;;;27.85;4.35;;;;;;;11.70;100.00;98781.28;5041368;28;20108;-74
2022/11/23 10:54:02;;;;;;;22.48;2.97;;;;;;;11.76;100.00;98776.31;5074754;28;20339;-74
2022/11/23 10:56:28;;;;;;;32.28;4.47;;;;;;;11.80;100.00;98789.16;5077678;28;20071;-74
2022/11/23 10:58:54;;;;;;;20.70;3.50;;;;;;;11.85;100.00;98797.31;5044111;28;20021;-74
2022/11/23 11:01:26;;;;;;;34.05;4.13;;;;;;;11.87;100.00;98807.28;5073799;28;20443;-74
2022/11/23 11:03:58;;;;;;;33.97;4.32;;;;;;;11.94;100.00;98818.66;5091259;28;20110;-74
2022/11/23 11:06:29;;;;;;;24.60;4.35;;;;;;;11.99;100.00;98810.91;5058556;28;20040;-74
2022/11/23 11:08:56;;;;;;;23.45;3.55;;;;;;;12.04;100.00;98815.44;5041510;28;20500;-73
2022/11/23 11:11:23;;;;;;;29.45;3.63;;;;;;;12.06;100.00;98824.25;5037942;28;20032;-74
2022/11/23 11:13:48;;;;;;;28.65;3.90;;;;;;;12.00;100.00;98820.06;5070840;28;20032;-73
2022/11/23 11:16:25;;;;;;;29.25;3.70;;;;;;;12.08;100.00;98821.94;5074167;28;20042;-73
2022/11/23 11:18:51;;;;;;;24.77;3.65;;;;;;;12.14;100.00;98816.97;5058456;28;20025;-74
2022/11/23 11:21:18;;;;;;;28.45;4.15;;;;;;;12.18;100.00;98826.25;5041080;28;20025;-73
2022/11/23 11:23:46;;;;;;;28.88;4.22;;;;;;;12.26;100.00;98828.94;5068962;28;20084;-73
2022/11/23 11:26:19;;;;;;;21.88;3.30;;;;;;;12.35;100.00;98825.22;5058190;28;20028;-74